createdAt,value
2019-05-30T00:00:17.898Z,98829.20
2019-05-30T00:02:47.248Z,98828.02
2019-05-30T00:05:17.695Z,98832.19
2019-05-30T00:07:48.028Z,98827.73
2019-05-30T00:10:18.637Z,98827.94
2019-05-30T00:12:49.253Z,98828.80
2019-05-30T00:15:19.835Z,98835.80
2019-05-30T00:17:50.180Z,98830.67
2019-05-30T00:20:20.503Z,98829.79
2019-05-30T00:22:50.847Z,98829.13
2019-05-30T00:25:21.195Z,98828.09
2019-05-30T00:27:51.702Z,98831.08
2019-05-30T00:30:24.756Z,98831.22
2019-05-30T00:32:54.092Z,98831.48
2019-05-30T00:35:24.473Z,98823.85
2019-05-30T00:37:55.635Z,98831.00
2019-05-30T00:40:26.047Z,98831.15
2019-05-30T00:42:56.390Z,98830.66
2019-05-30T00:45:26.803Z,98832.17
2019-05-30T00:47:58.083Z,98836.29
2019-05-30T00:50:28.871Z,98840.20
2019-05-30T00:53:00.743Z,98842.52
2019-05-30T00:55:31.239Z,98842.67
2019-05-30T00:58:02.734Z,98845.73
2019-05-30T01:00:43.475Z,98844.86
2019-05-30T01:03:06.865Z,98851.73
2019-05-30T01:05:37.391Z,98850.53
2019-05-30T01:08:07.712Z,98856.66
2019-05-30T01:10:38.027Z,98859.18
2019-05-30T01:13:08.402Z,98857.41
2019-05-30T01:15:39.091Z,98858.02
2019-05-30T01:18:09.728Z,98848.33
2019-05-30T01:20:40.066Z,98845.41
2019-05-30T01:23:10.402Z,98844.11
2019-05-30T01:25:40.873Z,98846.39
2019-05-30T01:28:11.192Z,98848.53
2019-05-30T01:30:41.681Z,98850.61
2019-05-30T01:33:12.014Z,98853.05
2019-05-30T01:35:42.438Z,98853.39
2019-05-30T01:38:12.767Z,98851.38
2019-05-30T01:40:43.132Z,98862.38
2019-05-30T01:43:13.577Z,98858.19
2019-05-30T01:45:43.953Z,98856.74
2019-05-30T01:48:14.305Z,98856.20
2019-05-30T01:50:44.633Z,98854.19
2019-05-30T01:53:15.944Z,98853.38
2019-05-30T01:55:48.795Z,98853.22
2019-05-30T01:58:18.818Z,98853.81
2019-05-30T02:00:49.556Z,98858.20
2019-05-30T02:03:19.951Z,98854.16
2019-05-30T02:05:50.321Z,98854.95
2019-05-30T02:08:20.686Z,98853.84
2019-05-30T02:10:51.094Z,98856.80
2019-05-30T02:13:21.556Z,98860.06
2019-05-30T02:15:51.978Z,98864.56
2019-05-30T02:18:22.348Z,98866.03
2019-05-30T02:20:52.728Z,98868.88
2019-05-30T02:23:23.078Z,98875.30
2019-05-30T02:25:53.448Z,98872.84
2019-05-30T02:28:23.776Z,98878.22
2019-05-30T02:30:54.150Z,98877.52
2019-05-30T02:33:24.516Z,98884.84
2019-05-30T02:35:54.812Z,98880.70
2019-05-30T02:38:25.209Z,98883.95
2019-05-30T02:40:55.560Z,98888.91
2019-05-30T02:43:25.985Z,98890.95
2019-05-30T02:45:56.319Z,98887.16
2019-05-30T02:48:26.733Z,98887.58
2019-05-30T02:50:57.063Z,98893.44
2019-05-30T02:53:27.443Z,98892.94
2019-05-30T02:55:57.756Z,98894.55
2019-05-30T02:58:28.134Z,98898.11
2019-05-30T03:00:58.750Z,98897.58
2019-05-30T03:03:29.166Z,98901.66
2019-05-30T03:05:59.530Z,98904.02
2019-05-30T03:08:29.876Z,98907.02
2019-05-30T03:11:02.214Z,98907.00
2019-05-30T03:13:33.056Z,98907.95
2019-05-30T03:16:04.560Z,98904.72
2019-05-30T03:18:35.753Z,98909.64
2019-05-30T03:21:08.614Z,98902.13
2019-05-30T03:23:38.352Z,98908.09
2019-05-30T03:26:10.699Z,98909.83
2019-05-30T03:28:40.734Z,98905.34
2019-05-30T03:31:25.880Z,98905.38
2019-05-30T03:33:43.831Z,98902.78
2019-05-30T03:36:26.943Z,98904.13
2019-05-30T03:38:46.450Z,98902.16
2019-05-30T03:41:16.846Z,98902.67
2019-05-30T03:43:47.341Z,98907.27
2019-05-30T03:46:22.167Z,98911.75
2019-05-30T03:48:53.961Z,98908.20
2019-05-30T03:51:25.972Z,98914.26
2019-05-30T03:53:56.455Z,98916.34
2019-05-30T03:56:34.230Z,98912.55
2019-05-30T03:59:14.924Z,98915.55
2019-05-30T04:02:06.396Z,98913.78
2019-05-30T04:04:42.161Z,98914.99
2019-05-30T04:07:16.554Z,98914.84
2019-05-30T04:09:47.590Z,98912.05
2019-05-30T04:12:33.504Z,98918.17
2019-05-30T04:15:12.564Z,98920.41
2019-05-30T04:17:43.203Z,98916.67
2019-05-30T04:20:14.717Z,98922.23
2019-05-30T04:22:45.616Z,98928.00
2019-05-30T04:25:16.690Z,98931.56
2019-05-30T04:27:47.204Z,98936.31
2019-05-30T04:30:18.548Z,98933.02
2019-05-30T04:32:48.965Z,98932.58
2019-05-30T04:35:21.155Z,98937.31
2019-05-30T04:37:51.504Z,98941.22
2019-05-30T04:40:21.901Z,98939.09
2019-05-30T04:42:55.859Z,98940.75
2019-05-30T04:45:27.963Z,98946.92
2019-05-30T04:47:59.623Z,98952.02
2019-05-30T04:50:29.971Z,98956.34
2019-05-30T04:53:00.304Z,98962.91
2019-05-30T04:55:30.644Z,98965.66
2019-05-30T04:58:01.025Z,98964.64
2019-05-30T05:00:31.383Z,98965.34
2019-05-30T05:03:01.773Z,98965.91
2019-05-30T05:05:32.183Z,98977.01
2019-05-30T05:08:04.354Z,98975.00
2019-05-30T05:10:34.753Z,98981.34
2019-05-30T05:13:05.153Z,98989.81
2019-05-30T05:15:36.762Z,98983.88
2019-05-30T05:18:07.190Z,98981.22
2019-05-30T05:20:37.549Z,98982.27
2019-05-30T05:23:07.898Z,98989.77
2019-05-30T05:25:38.671Z,98981.97
2019-05-30T05:28:09.262Z,98987.69
2019-05-30T05:30:39.659Z,98986.20
2019-05-30T05:33:10.010Z,98994.47
2019-05-30T05:35:40.348Z,98994.05
2019-05-30T05:38:10.778Z,98999.27
2019-05-30T05:40:41.152Z,99003.94
2019-05-30T05:43:11.528Z,99011.81
2019-05-30T05:45:43.041Z,99010.08
2019-05-30T05:48:13.461Z,99016.70
2019-05-30T05:50:43.868Z,99017.61
2019-05-30T05:53:14.307Z,99014.47
2019-05-30T05:55:44.638Z,99015.80
2019-05-30T05:58:15.017Z,99015.95
2019-05-30T06:00:45.350Z,99014.35
2019-05-30T06:03:16.811Z,99020.48
2019-05-30T06:05:52.877Z,99017.14
2019-05-30T06:08:19.974Z,99017.28
2019-05-30T06:10:50.334Z,99011.38
2019-05-30T06:13:20.908Z,99015.41
2019-05-30T06:15:51.334Z,99016.27
2019-05-30T06:18:22.272Z,99020.38
2019-05-30T06:20:52.738Z,99020.48
2019-05-30T06:23:23.731Z,99025.77
2019-05-30T06:25:54.165Z,99020.48
2019-05-30T06:28:24.584Z,99034.06
2019-05-30T06:30:58.895Z,99036.16
2019-05-30T06:33:29.150Z,99032.71
2019-05-30T06:35:59.662Z,99030.34
2019-05-30T06:38:29.990Z,99022.98
2019-05-30T06:41:00.334Z,99029.48
2019-05-30T06:43:30.769Z,99029.68
2019-05-30T06:46:01.135Z,99026.66
2019-05-30T06:48:31.454Z,99027.27
2019-05-30T06:51:01.797Z,99020.36
2019-05-30T06:53:32.143Z,99028.83
2019-05-30T06:56:02.510Z,99030.02
2019-05-30T06:58:45.783Z,99024.95
2019-05-30T07:01:05.142Z,99031.54
2019-05-30T07:03:35.581Z,99030.79
2019-05-30T07:06:07.122Z,99032.05
2019-05-30T07:08:37.786Z,99033.84
2019-05-30T07:11:09.200Z,99036.52
2019-05-30T07:13:39.903Z,99037.51
2019-05-30T07:16:10.870Z,99034.13
2019-05-30T07:18:41.270Z,99025.77
2019-05-30T07:21:11.706Z,99031.88
2019-05-30T07:23:42.087Z,99033.21
2019-05-30T07:26:12.557Z,99034.75
2019-05-30T07:28:42.973Z,99039.80
2019-05-30T07:31:13.485Z,99029.20
2019-05-30T07:33:43.934Z,99033.44
2019-05-30T07:36:14.320Z,99026.15
2019-05-30T07:38:44.699Z,99029.70
2019-05-30T07:41:15.280Z,99018.28
2019-05-30T07:43:45.661Z,99020.27
2019-05-30T07:46:16.056Z,99016.48
2019-05-30T07:48:47.431Z,99015.95
2019-05-30T07:51:17.923Z,99020.14
2019-05-30T07:53:50.152Z,99031.84
2019-05-30T07:56:20.512Z,99031.70
2019-05-30T07:58:50.985Z,99035.02
2019-05-30T08:01:21.403Z,99034.70
2019-05-30T08:03:51.898Z,99043.47
2019-05-30T08:06:22.422Z,99042.89
2019-05-30T08:08:52.829Z,99037.73
2019-05-30T08:11:23.248Z,99034.01
2019-05-30T08:13:53.639Z,99030.42
2019-05-30T08:16:24.046Z,99040.30
2019-05-30T08:18:54.536Z,99040.89
2019-05-30T08:21:25.008Z,99044.62
2019-05-30T08:23:55.483Z,99043.73
2019-05-30T08:26:28.013Z,99048.87
2019-05-30T08:28:59.561Z,99047.31
2019-05-30T08:31:30.451Z,99049.73
2019-05-30T08:34:00.766Z,99044.26
2019-05-30T08:36:31.120Z,99043.41
2019-05-30T08:39:03.108Z,99050.38
2019-05-30T08:41:33.475Z,99049.80
2019-05-30T08:44:03.831Z,99056.00
2019-05-30T08:46:34.244Z,99057.52
2019-05-30T08:49:04.726Z,99058.23
2019-05-30T08:51:36.221Z,99056.44
2019-05-30T08:54:06.724Z,99063.44
2019-05-30T08:56:38.597Z,99056.77
2019-05-30T08:59:09.562Z,99061.16
2019-05-30T09:01:40.451Z,99057.59
2019-05-30T09:04:11.452Z,99062.77
2019-05-30T09:24:51.000Z,99046.91
2019-05-30T09:27:21.380Z,99049.04
2019-05-30T09:29:51.817Z,99048.05
2019-05-30T09:32:23.421Z,99042.92
2019-05-30T09:34:54.887Z,99049.66
2019-05-30T09:37:25.223Z,99051.94
2019-05-30T09:39:55.626Z,99046.38
2019-05-30T09:42:25.992Z,99051.30
2019-05-30T09:44:56.432Z,99048.78
2019-05-30T09:47:26.811Z,99050.23
2019-05-30T09:49:58.885Z,99049.85
2019-05-30T09:52:29.741Z,99047.95
2019-05-30T09:55:00.124Z,99046.74
2019-05-30T09:57:30.453Z,99039.30
2019-05-30T10:00:00.872Z,99051.69
2019-05-30T10:02:32.828Z,99048.61
2019-05-30T10:05:03.294Z,99050.08
2019-05-30T10:07:33.699Z,99052.08
2019-05-30T10:10:04.396Z,99037.19
2019-05-30T10:12:34.794Z,99037.19
2019-05-30T10:15:05.665Z,99043.23
2019-05-30T10:17:36.136Z,99043.23
2019-05-30T10:20:07.226Z,99052.55
2019-05-30T10:22:37.780Z,99052.83
2019-05-30T10:25:08.995Z,99061.11
2019-05-30T10:27:39.811Z,99058.40
2019-05-30T10:30:10.668Z,99050.34
2019-05-30T10:32:41.170Z,99054.88
2019-05-30T10:35:12.375Z,99058.48
2019-05-30T10:37:42.768Z,99062.30
2019-05-30T10:40:15.088Z,99053.52
2019-05-30T10:42:47.843Z,99054.17
2019-05-30T10:45:19.046Z,99057.94
2019-05-30T10:47:49.511Z,99049.59
2019-05-30T10:50:20.402Z,99052.66
2019-05-30T10:52:51.477Z,99051.42
2019-05-30T10:55:22.686Z,99050.89
2019-05-30T10:57:57.551Z,99043.67
2019-05-30T11:00:42.309Z,99042.34
2019-05-30T11:03:12.740Z,99040.72
2019-05-30T11:05:48.435Z,99048.79
2019-05-30T11:08:22.655Z,99044.34
2019-05-30T11:10:53.111Z,99043.94
2019-05-30T11:13:23.504Z,99036.58
2019-05-30T11:15:55.410Z,99049.55
2019-05-30T11:18:25.945Z,99043.65
2019-05-30T11:20:56.512Z,99044.31
2019-05-30T11:23:27.053Z,99042.61
2019-05-30T11:25:58.779Z,99039.78
2019-05-30T11:28:29.290Z,99032.61
2019-05-30T11:31:04.173Z,99034.16
2019-05-30T11:33:31.881Z,99041.48
2019-05-30T11:36:02.256Z,99039.66
2019-05-30T11:38:32.786Z,99043.19
2019-05-30T11:41:03.158Z,99045.70
2019-05-30T11:43:35.088Z,99047.33
2019-05-30T11:46:05.568Z,99042.34
2019-05-30T11:48:36.934Z,99045.80
2019-05-30T11:51:07.337Z,99046.55
2019-05-30T11:53:37.699Z,99047.03
2019-05-30T11:56:08.542Z,99047.42
2019-05-30T11:58:39.393Z,99045.38
2019-05-30T12:01:09.824Z,99043.75
2019-05-30T12:03:40.236Z,99038.21
2019-05-30T12:06:10.563Z,99039.45
2019-05-30T12:08:41.030Z,99038.88
2019-05-30T12:11:11.385Z,99042.94
2019-05-30T12:13:41.948Z,99050.84
2019-05-30T12:16:12.376Z,99048.25
2019-05-30T12:18:42.939Z,99044.22
2019-05-30T12:21:13.338Z,99044.58
2019-05-30T12:23:43.836Z,99044.34
2019-05-30T12:26:14.270Z,99044.36
2019-05-30T12:28:44.768Z,99042.10
2019-05-30T12:31:15.494Z,99046.55
2019-05-30T12:33:45.823Z,99040.63
2019-05-30T12:36:16.225Z,99046.70
2019-05-30T12:38:46.696Z,99044.55
2019-05-30T12:41:17.074Z,99045.28
2019-05-30T12:43:47.478Z,99044.91
2019-05-30T12:46:17.937Z,99042.55
2019-05-30T12:48:48.570Z,99044.75
2019-05-30T12:51:19.227Z,99039.66
2019-05-30T12:53:49.887Z,99045.03
2019-05-30T12:56:20.333Z,99044.74
2019-05-30T12:58:50.840Z,99044.25
2019-05-30T13:01:21.186Z,99055.52
2019-05-30T13:03:51.606Z,99054.01
2019-05-30T13:06:22.043Z,99054.61
2019-05-30T13:08:56.967Z,99056.73
2019-05-30T13:11:27.789Z,99054.73
2019-05-30T13:13:58.723Z,99058.32
2019-05-30T13:16:29.469Z,99063.09
2019-05-30T13:19:00.075Z,99060.08
2019-05-30T13:21:30.562Z,99067.30
2019-05-30T13:24:01.895Z,99062.38
2019-05-30T13:26:32.589Z,99066.81
2019-05-30T13:29:04.374Z,99060.73
2019-05-30T13:31:34.894Z,99062.67
2019-05-30T13:34:05.522Z,99067.48
2019-05-30T13:36:35.987Z,99065.48
2019-05-30T13:39:07.641Z,99067.84
2019-05-30T13:41:38.153Z,99065.77
2019-05-30T13:44:09.799Z,99061.34
2019-05-30T13:46:42.378Z,99068.17
2019-05-30T13:49:12.911Z,99058.77
2019-05-30T13:51:43.378Z,99065.11
2019-05-30T13:54:13.822Z,99058.37
2019-05-30T13:56:44.409Z,99057.77
2019-05-30T13:59:14.805Z,99055.66
2019-05-30T14:01:45.320Z,99057.88
2019-05-30T14:04:15.756Z,99057.88
2019-05-30T14:06:46.307Z,99057.86
2019-05-30T14:09:16.843Z,99055.33
2019-05-30T14:11:49.195Z,99057.34
2019-05-30T14:14:19.834Z,99057.00
2019-05-30T14:16:50.491Z,99056.87
2019-05-30T14:19:20.928Z,99055.97
2019-05-30T14:21:51.353Z,99060.67
2019-05-30T14:24:21.818Z,99056.27
2019-05-30T14:26:52.200Z,99055.30
2019-05-30T14:29:22.607Z,99058.39
2019-05-30T14:31:53.066Z,99059.14
2019-05-30T14:34:23.454Z,99058.19
2019-05-30T14:36:53.857Z,99058.89
2019-05-30T14:39:24.216Z,99054.72
2019-05-30T14:41:54.691Z,99058.88
2019-05-30T14:44:25.987Z,99050.14
2019-05-30T14:46:56.395Z,99047.62
2019-05-30T14:49:26.744Z,99049.41
2019-05-30T14:51:57.143Z,99051.59
2019-05-30T14:54:27.544Z,99048.05
2019-05-30T14:56:58.004Z,99050.96
2019-05-30T14:59:28.359Z,99046.70
2019-05-30T15:01:58.802Z,99050.02
2019-05-30T15:04:29.170Z,99045.80
2019-05-30T15:06:59.587Z,99049.29
2019-05-30T15:09:29.941Z,99045.77
2019-05-30T15:12:00.364Z,99038.30
2019-05-30T15:14:30.738Z,99047.73
2019-05-30T15:17:01.242Z,99041.06
2019-05-30T15:19:31.635Z,99048.69
2019-05-30T15:22:02.033Z,99045.25
2019-05-30T15:24:32.514Z,99037.69
2019-05-30T15:27:02.921Z,99036.98
2019-05-30T15:29:33.388Z,99042.23
2019-05-30T15:32:03.788Z,99033.69
2019-05-30T15:34:34.314Z,99040.42
2019-05-30T15:37:04.732Z,99041.55
2019-05-30T15:39:35.121Z,99035.98
2019-05-30T15:42:05.619Z,99036.98
2019-05-30T15:44:35.997Z,99036.55
2019-05-30T15:47:06.378Z,99037.84
2019-05-30T15:49:36.746Z,99030.66
2019-05-30T15:52:07.173Z,99026.39
2019-05-30T15:54:37.542Z,99026.33
2019-05-30T15:57:09.224Z,99027.14
2019-05-30T15:59:39.569Z,99024.00
2019-05-30T16:02:09.974Z,99024.26
2019-05-30T16:04:40.328Z,99031.12
2019-05-30T16:07:10.749Z,99031.41
2019-05-30T16:09:47.120Z,99032.98
2019-05-30T16:12:13.310Z,99040.41
2019-05-30T16:14:43.679Z,99031.36
2019-05-30T16:17:14.086Z,99033.09
2019-05-30T16:19:44.737Z,99030.67
2019-05-30T16:22:16.289Z,99025.23
2019-05-30T16:24:46.730Z,99030.04
2019-05-30T16:27:17.778Z,99021.60
2019-05-30T16:29:48.311Z,99022.72
2019-05-30T16:32:20.236Z,99027.60
2019-05-30T16:34:50.826Z,99019.34
2019-05-30T16:37:22.265Z,99029.81
2019-05-30T16:40:05.378Z,99025.83
2019-05-30T16:42:26.689Z,99032.84
2019-05-30T16:44:57.113Z,99031.14
2019-05-30T16:47:27.573Z,99033.52
2019-05-30T16:49:57.957Z,99021.48
2019-05-30T16:52:29.902Z,99016.95
2019-05-30T16:55:00.296Z,99017.58
2019-05-30T16:57:30.853Z,99017.02
2019-05-30T17:00:01.286Z,99019.63
2019-05-30T17:02:31.740Z,99019.05
2019-05-30T17:05:02.102Z,99017.09
2019-05-30T17:07:32.508Z,99029.33
2019-05-30T17:10:02.921Z,99026.44
2019-05-30T17:12:33.300Z,99025.23
2019-05-30T17:15:04.191Z,99022.03
2019-05-30T17:17:34.542Z,99021.14
2019-05-30T17:20:05.700Z,99026.63
2019-05-30T17:22:36.217Z,99028.37
2019-05-30T17:25:06.809Z,99021.17
2019-05-30T17:27:37.248Z,99027.52
2019-05-30T17:30:08.035Z,99027.70
2019-05-30T17:32:38.866Z,99023.63
2019-05-30T17:35:10.070Z,99027.27
2019-05-30T17:37:40.465Z,99029.92
2019-05-30T17:40:11.145Z,99026.33
2019-05-30T17:42:41.528Z,99021.08
2019-05-30T17:45:12.278Z,99021.28
2019-05-30T17:47:42.647Z,99020.31
2019-05-30T17:50:13.427Z,99016.69
2019-05-30T17:52:44.375Z,99026.41
2019-05-30T17:55:15.022Z,99027.42
2019-05-30T17:57:45.388Z,99038.52
2019-05-30T18:00:17.633Z,99035.20
2019-05-30T18:02:48.263Z,99036.17
2019-05-30T18:05:18.883Z,99042.27
2019-05-30T18:07:49.558Z,99044.02
2019-05-30T18:10:20.725Z,99049.06
2019-05-30T18:12:51.265Z,99045.55
2019-05-30T18:15:24.899Z,99048.50
2019-05-30T18:17:53.875Z,99052.39
2019-05-30T18:20:25.323Z,99058.46
2019-05-30T18:22:55.805Z,99062.78
2019-05-30T18:25:27.570Z,99053.62
2019-05-30T18:27:58.228Z,99058.13
2019-05-30T18:30:40.681Z,99053.07
2019-05-30T18:33:11.471Z,99060.31
2019-05-30T18:35:41.863Z,99063.45
2019-05-30T18:38:12.295Z,99063.56
2019-05-30T18:40:42.750Z,99068.15
2019-05-30T18:43:13.145Z,99068.81
2019-05-30T18:45:44.870Z,99073.24
2019-05-30T18:48:15.409Z,99074.61
2019-05-30T18:50:45.838Z,99071.95
2019-05-30T18:53:16.560Z,99075.42
2019-05-30T18:55:47.150Z,99077.38
2019-05-30T18:58:17.561Z,99080.30
2019-05-30T19:00:47.943Z,99078.67
2019-05-30T19:03:18.710Z,99081.92
2019-05-30T19:05:49.463Z,99075.64
2019-05-30T19:08:19.905Z,99076.61
2019-05-30T19:10:50.254Z,99079.63
2019-05-30T19:13:21.052Z,99081.55
2019-05-30T19:15:51.434Z,99089.70
2019-05-30T19:18:21.911Z,99097.90
2019-05-30T19:20:52.386Z,99097.36
2019-05-30T19:23:22.764Z,99105.36
2019-05-30T19:25:53.162Z,99103.17
2019-05-30T19:28:23.643Z,99116.37
2019-05-30T19:30:54.087Z,99104.36
2019-05-30T19:33:24.603Z,99105.34
2019-05-30T19:35:55.078Z,99111.00
2019-05-30T19:38:25.469Z,99116.83
2019-05-30T19:40:55.875Z,99121.47
2019-05-30T19:43:27.478Z,99119.49
2019-05-30T19:45:58.008Z,99117.48
2019-05-30T19:48:30.175Z,99112.75
2019-05-30T19:51:00.892Z,99115.03
2019-05-30T19:53:31.318Z,99116.36
2019-05-30T19:56:01.695Z,99104.23
2019-05-30T19:58:33.372Z,99106.20
2019-05-30T20:01:03.911Z,99111.38
2019-05-30T20:03:41.726Z,99118.22
2019-05-30T20:06:06.349Z,99111.92
2019-05-30T20:08:51.331Z,99112.09
2019-05-30T20:11:09.380Z,99115.20
2019-05-30T20:13:41.201Z,99116.08
2019-05-30T20:16:11.894Z,99111.11
2019-05-30T20:18:42.243Z,99115.13
2019-05-30T20:21:12.780Z,99121.66
2019-05-30T20:23:52.778Z,99115.91
2019-05-30T20:26:15.408Z,99113.07
2019-05-30T20:28:47.309Z,99118.88
2019-05-30T20:31:17.730Z,99120.84
2019-05-30T20:33:48.159Z,99119.86
2019-05-30T20:36:18.546Z,99122.19
2019-05-30T20:38:48.922Z,99118.72
2019-05-30T20:41:20.935Z,99111.84
2019-05-30T20:43:51.321Z,99109.81
2019-05-30T20:46:23.518Z,99105.17
2019-05-30T20:48:53.906Z,99112.66
2019-05-30T20:51:24.374Z,99114.34
2019-05-30T20:53:54.962Z,99113.70
2019-05-30T20:56:25.617Z,99114.46
2019-05-30T20:58:56.049Z,99122.52
2019-05-30T21:01:26.521Z,99122.53
2019-05-30T21:03:57.056Z,99124.69
2019-05-30T21:06:27.941Z,99120.99
2019-05-30T21:08:59.617Z,99122.29
2019-05-30T21:11:31.430Z,99122.71
2019-05-30T21:14:03.321Z,99123.22
2019-05-30T21:16:35.710Z,99118.95
2019-05-30T21:19:06.327Z,99120.47
2019-05-30T21:21:37.875Z,99125.87
2019-05-30T21:24:08.682Z,99125.55
2019-05-30T21:26:39.289Z,99125.62
2019-05-30T21:29:09.734Z,99128.81
2019-05-30T21:31:41.359Z,99126.76
2019-05-30T21:34:11.957Z,99131.12
2019-05-30T21:36:43.813Z,99143.03
2019-05-30T21:39:14.598Z,99138.85
2019-05-30T21:41:46.300Z,99139.28
2019-05-30T21:44:16.784Z,99139.31
2019-05-30T21:46:47.295Z,99147.01
2019-05-30T21:49:17.722Z,99148.95
2019-05-30T21:51:48.195Z,99155.20
2019-05-30T21:54:18.565Z,99159.48
2019-05-30T21:56:50.306Z,99157.91
2019-05-30T21:59:21.067Z,99162.13
2019-05-30T22:01:56.829Z,99166.72
2019-05-30T22:04:23.540Z,99158.95
2019-05-30T22:06:53.923Z,99162.02
2019-05-30T22:09:24.375Z,99160.69
2019-05-30T22:11:54.915Z,99160.47
2019-05-30T22:14:26.450Z,99159.87
2019-05-30T22:16:58.244Z,99158.36
2019-05-30T22:19:28.794Z,99157.38
2019-05-30T22:21:59.118Z,99164.13
2019-05-30T22:24:29.906Z,99159.97
2019-05-30T22:27:00.263Z,99167.14
2019-05-30T22:29:30.762Z,99163.53
2019-05-30T22:32:01.192Z,99161.23
2019-05-30T22:34:31.666Z,99161.19
2019-05-30T22:37:02.076Z,99156.77
2019-05-30T22:39:32.676Z,99161.41
2019-05-30T22:42:03.091Z,99160.86
2019-05-30T22:44:33.477Z,99163.68
2019-05-30T22:47:03.926Z,99161.86
2019-05-30T22:49:34.392Z,99159.77
2019-05-30T22:52:04.756Z,99161.22
2019-05-30T22:54:36.783Z,99160.23
2019-05-30T22:57:07.147Z,99155.20
2019-05-30T22:59:37.509Z,99153.41
2019-05-30T23:02:07.862Z,99150.41
2019-05-30T23:04:38.837Z,99148.80
2019-05-30T23:07:09.484Z,99147.01
2019-05-30T23:09:39.903Z,99146.16
2019-05-30T23:12:10.273Z,99148.16
2019-05-30T23:14:40.879Z,99145.08
2019-05-30T23:17:11.339Z,99142.98
2019-05-30T23:19:41.676Z,99142.45
2019-05-30T23:22:12.083Z,99144.25
2019-05-30T23:24:42.562Z,99143.47
2019-05-30T23:27:12.961Z,99140.44
2019-05-30T23:29:43.336Z,99140.80
2019-05-30T23:32:13.709Z,99135.66
2019-05-30T23:34:44.089Z,99142.81
2019-05-30T23:37:14.455Z,99139.47
2019-05-30T23:39:44.885Z,99136.41
2019-05-30T23:42:15.288Z,99122.72
2019-05-30T23:44:45.657Z,99125.66
2019-05-30T23:47:16.117Z,99120.70
2019-05-30T23:49:46.503Z,99126.99
2019-05-30T23:52:16.946Z,99119.04
2019-05-30T23:54:47.323Z,99121.69
2019-05-30T23:57:17.802Z,99128.26
2019-05-30T23:59:48.320Z,99123.43
